sensor_id;sensor_type;location;lat;lon;timestamp;P1;durP1;ratioP1;P2;durP2;ratioP2
51724;SDS011;37801;53.224;6.552;2023-01-29T00:01:32;10.45;;;6.30;;
51724;SDS011;37801;53.224;6.552;2023-01-29T00:03:58;8.63;;;6.22;;
51724;SDS011;37801;53.224;6.552;2023-01-29T00:06:24;9.70;;;6.22;;
51724;SDS011;37801;53.224;6.552;2023-01-29T00:08:50;8.35;;;5.72;;
51724;SDS011;37801;53.224;6.552;2023-01-29T00:11:16;9.52;;;5.68;;
51724;SDS011;37801;53.224;6.552;2023-01-29T00:13:44;11.27;;;7.03;;
51724;SDS011;37801;53.224;6.552;2023-01-29T00:16:10;11.77;;;6.70;;
51724;SDS011;37801;53.224;6.552;2023-01-29T00:18:40;10.55;;;6.22;;
51724;SDS011;37801;53.224;6.552;2023-01-29T00:21:13;9.02;;;5.97;;
51724;SDS011;37801;53.224;6.552;2023-01-29T00:23:40;12.00;;;6.75;;
51724;SDS011;37801;53.224;6.552;2023-01-29T00:26:06;11.68;;;6.45;;
51724;SDS011;37801;53.224;6.552;2023-01-29T00:28:32;10.02;;;6.07;;
51724;SDS011;37801;53.224;6.552;2023-01-29T00:31:05;10.75;;;6.32;;
51724;SDS011;37801;53.224;6.552;2023-01-29T00:33:31;10.90;;;6.63;;
51724;SDS011;37801;53.224;6.552;2023-01-29T00:36:00;9.25;;;6.40;;
51724;SDS011;37801;53.224;6.552;2023-01-29T00:38:26;11.32;;;6.97;;
51724;SDS011;37801;53.224;6.552;2023-01-29T00:40:52;10.65;;;6.70;;
51724;SDS011;37801;53.224;6.552;2023-01-29T00:43:37;11.40;;;7.00;;
51724;SDS011;37801;53.224;6.552;2023-01-29T00:46:21;10.88;;;7.22;;
51724;SDS011;37801;53.224;6.552;2023-01-29T00:48:47;12.32;;;7.20;;
51724;SDS011;37801;53.224;6.552;2023-01-29T00:51:13;11.13;;;7.38;;
51724;SDS011;37801;53.224;6.552;2023-01-29T00:53:39;12.13;;;7.60;;
51724;SDS011;37801;53.224;6.552;2023-01-29T00:56:06;10.65;;;7.00;;
51724;SDS011;37801;53.224;6.552;2023-01-29T00:58:32;11.38;;;7.13;;
51724;SDS011;37801;53.224;6.552;2023-01-29T01:00:59;12.23;;;7.28;;
51724;SDS011;37801;53.224;6.552;2023-01-29T01:03:26;10.63;;;7.32;;
51724;SDS011;37801;53.224;6.552;2023-01-29T01:06:05;11.23;;;7.07;;
51724;SDS011;37801;53.224;6.552;2023-01-29T01:08:31;14.70;;;7.72;;
51724;SDS011;37801;53.224;6.552;2023-01-29T01:11:16;11.68;;;6.85;;
51724;SDS011;37801;53.224;6.552;2023-01-29T01:13:42;10.98;;;6.88;;
51724;SDS011;37801;53.224;6.552;2023-01-29T01:16:09;13.18;;;7.38;;
51724;SDS011;37801;53.224;6.552;2023-01-29T01:18:36;12.43;;;7.25;;
51724;SDS011;37801;53.224;6.552;2023-01-29T01:21:02;13.00;;;7.35;;
51724;SDS011;37801;53.224;6.552;2023-01-29T01:23:28;12.25;;;7.53;;
51724;SDS011;37801;53.224;6.552;2023-01-29T01:25:54;13.90;;;7.10;;
51724;SDS011;37801;53.224;6.552;2023-01-29T01:28:20;11.82;;;7.95;;
51724;SDS011;37801;53.224;6.552;2023-01-29T01:30:46;10.95;;;7.43;;
51724;SDS011;37801;53.224;6.552;2023-01-29T01:33:12;13.27;;;7.50;;
51724;SDS011;37801;53.224;6.552;2023-01-29T01:35:40;12.55;;;7.63;;
51724;SDS011;37801;53.224;6.552;2023-01-29T01:38:06;11.55;;;7.50;;
51724;SDS011;37801;53.224;6.552;2023-01-29T01:40:32;12.02;;;7.70;;
51724;SDS011;37801;53.224;6.552;2023-01-29T01:42:58;11.55;;;7.63;;
51724;SDS011;37801;53.224;6.552;2023-01-29T01:47:53;12.95;;;8.30;;
51724;SDS011;37801;53.224;6.552;2023-01-29T01:50:26;16.50;;;9.13;;
51724;SDS011;37801;53.224;6.552;2023-01-29T01:52:55;12.63;;;8.20;;
51724;SDS011;37801;53.224;6.552;2023-01-29T01:55:23;13.00;;;8.63;;
51724;SDS011;37801;53.224;6.552;2023-01-29T01:57:51;14.32;;;8.70;;
51724;SDS011;37801;53.224;6.552;2023-01-29T02:00:19;13.90;;;7.93;;
51724;SDS011;37801;53.224;6.552;2023-01-29T02:02:46;13.25;;;8.57;;
51724;SDS011;37801;53.224;6.552;2023-01-29T02:05:32;16.02;;;8.82;;
51724;SDS011;37801;53.224;6.552;2023-01-29T02:08:18;12.73;;;8.63;;
51724;SDS011;37801;53.224;6.552;2023-01-29T02:11:06;14.20;;;9.27;;
51724;SDS011;37801;53.224;6.552;2023-01-29T02:13:32;11.30;;;8.88;;
51724;SDS011;37801;53.224;6.552;2023-01-29T02:15:59;13.75;;;8.93;;
51724;SDS011;37801;53.224;6.552;2023-01-29T02:18:25;14.27;;;9.20;;
51724;SDS011;37801;53.224;6.552;2023-01-29T02:31:11;15.25;;;9.30;;
51724;SDS011;37801;53.224;6.552;2023-01-29T02:41:10;14.70;;;10.02;;
51724;SDS011;37801;53.224;6.552;2023-01-29T02:43:45;14.18;;;9.95;;
51724;SDS011;37801;53.224;6.552;2023-01-29T02:48:58;14.52;;;9.50;;
51724;SDS011;37801;53.224;6.552;2023-01-29T02:51:31;14.50;;;9.48;;
51724;SDS011;37801;53.224;6.552;2023-01-29T02:54:03;17.45;;;10.57;;
51724;SDS011;37801;53.224;6.552;2023-01-29T02:59:00;13.20;;;9.10;;
51724;SDS011;37801;53.224;6.552;2023-01-29T03:01:34;14.73;;;9.75;;
51724;SDS011;37801;53.224;6.552;2023-01-29T03:04:03;17.45;;;11.07;;
51724;SDS011;37801;53.224;6.552;2023-01-29T03:06:40;15.73;;;10.18;;
51724;SDS011;37801;53.224;6.552;2023-01-29T03:09:09;13.73;;;9.57;;
51724;SDS011;37801;53.224;6.552;2023-01-29T03:11:41;15.88;;;10.43;;
51724;SDS011;37801;53.224;6.552;2023-01-29T03:14:08;17.50;;;10.25;;
51724;SDS011;37801;53.224;6.552;2023-01-29T03:16:38;14.80;;;10.40;;
51724;SDS011;37801;53.224;6.552;2023-01-29T03:19:13;14.90;;;10.55;;
51724;SDS011;37801;53.224;6.552;2023-01-29T03:21:42;13.13;;;9.68;;
51724;SDS011;37801;53.224;6.552;2023-01-29T03:24:33;16.80;;;10.93;;
51724;SDS011;37801;53.224;6.552;2023-01-29T03:27:19;15.25;;;10.25;;
51724;SDS011;37801;53.224;6.552;2023-01-29T03:30:06;18.50;;;11.23;;
51724;SDS011;37801;53.224;6.552;2023-01-29T03:32:53;14.48;;;10.55;;
51724;SDS011;37801;53.224;6.552;2023-01-29T03:35:22;18.77;;;11.40;;
51724;SDS011;37801;53.224;6.552;2023-01-29T03:37:57;17.98;;;12.30;;
51724;SDS011;37801;53.224;6.552;2023-01-29T03:40:24;17.50;;;12.18;;
51724;SDS011;37801;53.224;6.552;2023-01-29T03:43:08;18.17;;;11.30;;
51724;SDS011;37801;53.224;6.552;2023-01-29T03:45:43;19.17;;;12.95;;
51724;SDS011;37801;53.224;6.552;2023-01-29T03:48:15;17.70;;;13.10;;
51724;SDS011;37801;53.224;6.552;2023-01-29T03:50:50;19.33;;;13.70;;
51724;SDS011;37801;53.224;6.552;2023-01-29T03:54:02;20.42;;;14.23;;
51724;SDS011;37801;53.224;6.552;2023-01-29T03:58:49;20.83;;;14.48;;
51724;SDS011;37801;53.224;6.552;2023-01-29T04:01:22;19.05;;;14.07;;
51724;SDS011;37801;53.224;6.552;2023-01-29T04:06:21;21.85;;;15.18;;
51724;SDS011;37801;53.224;6.552;2023-01-29T04:11:15;21.42;;;15.23;;
51724;SDS011;37801;53.224;6.552;2023-01-29T04:13:43;20.95;;;14.73;;
51724;SDS011;37801;53.224;6.552;2023-01-29T04:16:11;22.65;;;15.50;;
51724;SDS011;37801;53.224;6.552;2023-01-29T04:18:39;22.15;;;15.15;;
51724;SDS011;37801;53.224;6.552;2023-01-29T04:21:05;20.63;;;14.50;;
51724;SDS011;37801;53.224;6.552;2023-01-29T04:23:31;20.88;;;15.02;;
51724;SDS011;37801;53.224;6.552;2023-01-29T04:26:01;21.65;;;14.13;;
51724;SDS011;37801;53.224;6.552;2023-01-29T04:28:40;22.08;;;14.77;;
51724;SDS011;37801;53.224;6.552;2023-01-29T04:31:10;22.42;;;14.52;;
51724;SDS011;37801;53.224;6.552;2023-01-29T04:33:47;21.58;;;14.68;;
51724;SDS011;37801;53.224;6.552;2023-01-29T04:41:10;22.42;;;15.32;;
51724;SDS011;37801;53.224;6.552;2023-01-29T04:56:22;21.25;;;14.95;;
51724;SDS011;37801;53.224;6.552;2023-01-29T04:58:51;23.00;;;16.00;;
51724;SDS011;37801;53.224;6.552;2023-01-29T05:01:19;22.30;;;15.52;;
51724;SDS011;37801;53.224;6.552;2023-01-29T05:03:49;22.80;;;16.00;;
51724;SDS011;37801;53.224;6.552;2023-01-29T05:06:16;25.67;;;16.55;;
51724;SDS011;37801;53.224;6.552;2023-01-29T05:08:43;24.90;;;16.60;;
51724;SDS011;37801;53.224;6.552;2023-01-29T05:11:09;25.75;;;17.45;;
51724;SDS011;37801;53.224;6.552;2023-01-29T05:13:37;22.92;;;16.85;;
51724;SDS011;37801;53.224;6.552;2023-01-29T05:16:07;24.30;;;17.10;;
51724;SDS011;37801;53.224;6.552;2023-01-29T05:18:34;24.80;;;16.48;;
51724;SDS011;37801;53.224;6.552;2023-01-29T05:21:02;23.77;;;17.10;;
51724;SDS011;37801;53.224;6.552;2023-01-29T05:23:29;28.02;;;18.05;;
51724;SDS011;37801;53.224;6.552;2023-01-29T05:25:55;26.02;;;18.42;;
51724;SDS011;37801;53.224;6.552;2023-01-29T05:28:22;25.98;;;18.23;;
51724;SDS011;37801;53.224;6.552;2023-01-29T05:30:49;25.23;;;17.55;;
51724;SDS011;37801;53.224;6.552;2023-01-29T05:35:44;25.15;;;16.95;;
51724;SDS011;37801;53.224;6.552;2023-01-29T05:38:11;28.90;;;18.20;;
51724;SDS011;37801;53.224;6.552;2023-01-29T05:40:37;26.67;;;18.10;;
51724;SDS011;37801;53.224;6.552;2023-01-29T05:43:03;27.30;;;19.02;;
51724;SDS011;37801;53.224;6.552;2023-01-29T05:45:31;26.40;;;18.00;;
51724;SDS011;37801;53.224;6.552;2023-01-29T05:47:57;25.70;;;17.90;;
51724;SDS011;37801;53.224;6.552;2023-01-29T05:50:24;23.13;;;16.30;;
51724;SDS011;37801;53.224;6.552;2023-01-29T05:52:57;26.20;;;17.10;;
51724;SDS011;37801;53.224;6.552;2023-01-29T05:55:24;23.58;;;16.13;;
51724;SDS011;37801;53.224;6.552;2023-01-29T05:57:50;23.67;;;15.70;;
51724;SDS011;37801;53.224;6.552;2023-01-29T06:00:16;25.38;;;16.85;;
51724;SDS011;37801;53.224;6.552;2023-01-29T06:02:42;25.50;;;17.20;;
51724;SDS011;37801;53.224;6.552;2023-01-29T06:05:08;25.00;;;17.70;;
51724;SDS011;37801;53.224;6.552;2023-01-29T06:07:34;23.23;;;16.08;;
51724;SDS011;37801;53.224;6.552;2023-01-29T06:10:01;22.08;;;15.48;;
51724;SDS011;37801;53.224;6.552;2023-01-29T06:12:27;23.67;;;15.88;;
51724;SDS011;37801;53.224;6.552;2023-01-29T06:14:53;23.80;;;16.48;;
51724;SDS011;37801;53.224;6.552;2023-01-29T06:17:19;23.60;;;15.07;;
51724;SDS011;37801;53.224;6.552;2023-01-29T06:19:46;21.65;;;15.88;;
51724;SDS011;37801;53.224;6.552;2023-01-29T06:22:12;22.23;;;15.65;;
51724;SDS011;37801;53.224;6.552;2023-01-29T06:24:38;23.92;;;16.27;;
51724;SDS011;37801;53.224;6.552;2023-01-29T06:27:04;23.33;;;16.52;;
51724;SDS011;37801;53.224;6.552;2023-01-29T06:29:30;24.10;;;17.15;;
51724;SDS011;37801;53.224;6.552;2023-01-29T06:31:56;23.27;;;16.67;;
51724;SDS011;37801;53.224;6.552;2023-01-29T06:34:22;26.88;;;18.75;;
51724;SDS011;37801;53.224;6.552;2023-01-29T06:36:48;26.67;;;18.48;;
51724;SDS011;37801;53.224;6.552;2023-01-29T06:39:14;28.30;;;20.08;;
51724;SDS011;37801;53.224;6.552;2023-01-29T06:41:41;27.73;;;19.98;;
51724;SDS011;37801;53.224;6.552;2023-01-29T06:44:07;29.33;;;20.02;;
51724;SDS011;37801;53.224;6.552;2023-01-29T06:46:33;31.75;;;21.75;;
51724;SDS011;37801;53.224;6.552;2023-01-29T06:48:59;30.95;;;21.63;;
51724;SDS011;37801;53.224;6.552;2023-01-29T06:51:25;32.95;;;21.90;;
51724;SDS011;37801;53.224;6.552;2023-01-29T06:53:51;36.92;;;23.25;;
51724;SDS011;37801;53.224;6.552;2023-01-29T06:56:20;33.97;;;22.45;;
51724;SDS011;37801;53.224;6.552;2023-01-29T06:58:46;32.85;;;21.38;;
51724;SDS011;37801;53.224;6.552;2023-01-29T07:01:12;36.60;;;22.35;;
51724;SDS011;37801;53.224;6.552;2023-01-29T07:03:38;35.10;;;21.75;;
51724;SDS011;37801;53.224;6.552;2023-01-29T07:06:06;32.05;;;22.25;;
51724;SDS011;37801;53.224;6.552;2023-01-29T07:08:36;33.10;;;22.13;;
51724;SDS011;37801;53.224;6.552;2023-01-29T07:11:02;32.63;;;22.33;;
51724;SDS011;37801;53.224;6.552;2023-01-29T07:13:29;31.83;;;21.63;;
51724;SDS011;37801;53.224;6.552;2023-01-29T07:15:58;32.30;;;21.00;;
51724;SDS011;37801;53.224;6.552;2023-01-29T07:18:25;32.78;;;21.60;;
51724;SDS011;37801;53.224;6.552;2023-01-29T07:20:52;32.13;;;21.88;;
51724;SDS011;37801;53.224;6.552;2023-01-29T07:23:18;29.27;;;19.45;;
51724;SDS011;37801;53.224;6.552;2023-01-29T07:25:44;31.30;;;20.00;;
51724;SDS011;37801;53.224;6.552;2023-01-29T07:28:11;29.75;;;20.48;;
51724;SDS011;37801;53.224;6.552;2023-01-29T07:30:37;27.92;;;19.20;;
51724;SDS011;37801;53.224;6.552;2023-01-29T07:33:03;27.73;;;18.92;;
51724;SDS011;37801;53.224;6.552;2023-01-29T07:35:30;28.80;;;19.55;;
51724;SDS011;37801;53.224;6.552;2023-01-29T07:37:57;26.13;;;19.30;;
51724;SDS011;37801;53.224;6.552;2023-01-29T07:40:23;32.08;;;20.35;;
51724;SDS011;37801;53.224;6.552;2023-01-29T07:42:49;30.42;;;20.55;;
51724;SDS011;37801;53.224;6.552;2023-01-29T07:45:15;29.73;;;21.13;;
51724;SDS011;37801;53.224;6.552;2023-01-29T07:47:41;30.55;;;20.50;;
51724;SDS011;37801;53.224;6.552;2023-01-29T07:50:07;30.23;;;21.40;;
51724;SDS011;37801;53.224;6.552;2023-01-29T07:52:34;28.10;;;20.83;;
51724;SDS011;37801;53.224;6.552;2023-01-29T07:55:00;28.70;;;21.55;;
51724;SDS011;37801;53.224;6.552;2023-01-29T07:57:26;33.50;;;22.60;;
51724;SDS011;37801;53.224;6.552;2023-01-29T07:59:52;31.65;;;23.35;;
51724;SDS011;37801;53.224;6.552;2023-01-29T08:02:18;29.45;;;21.60;;
51724;SDS011;37801;53.224;6.552;2023-01-29T08:04:44;30.48;;;21.95;;
51724;SDS011;37801;53.224;6.552;2023-01-29T08:07:10;29.27;;;21.55;;
51724;SDS011;37801;53.224;6.552;2023-01-29T08:09:37;33.78;;;21.90;;
51724;SDS011;37801;53.224;6.552;2023-01-29T08:12:03;32.70;;;22.85;;
51724;SDS011;37801;53.224;6.552;2023-01-29T08:14:29;32.35;;;22.50;;
51724;SDS011;37801;53.224;6.552;2023-01-29T08:16:55;35.10;;;23.65;;
51724;SDS011;37801;53.224;6.552;2023-01-29T08:19:21;35.85;;;22.33;;
51724;SDS011;37801;53.224;6.552;2023-01-29T08:21:47;31.67;;;21.27;;
51724;SDS011;37801;53.224;6.552;2023-01-29T08:24:13;32.60;;;21.83;;
51724;SDS011;37801;53.224;6.552;2023-01-29T08:26:40;30.42;;;21.55;;
51724;SDS011;37801;53.224;6.552;2023-01-29T08:29:06;31.60;;;22.58;;
51724;SDS011;37801;53.224;6.552;2023-01-29T08:31:32;34.33;;;22.95;;
51724;SDS011;37801;53.224;6.552;2023-01-29T08:33:59;32.55;;;22.23;;
51724;SDS011;37801;53.224;6.552;2023-01-29T08:36:25;32.90;;;22.42;;
51724;SDS011;37801;53.224;6.552;2023-01-29T08:38:51;30.55;;;21.77;;
51724;SDS011;37801;53.224;6.552;2023-01-29T08:41:17;33.20;;;23.63;;
51724;SDS011;37801;53.224;6.552;2023-01-29T08:43:43;31.63;;;23.15;;
51724;SDS011;37801;53.224;6.552;2023-01-29T08:46:10;33.50;;;24.13;;
51724;SDS011;37801;53.224;6.552;2023-01-29T08:48:36;31.63;;;21.70;;
51724;SDS011;37801;53.224;6.552;2023-01-29T08:51:03;35.38;;;23.00;;
51724;SDS011;37801;53.224;6.552;2023-01-29T08:53:29;33.05;;;22.80;;
51724;SDS011;37801;53.224;6.552;2023-01-29T08:55:56;33.55;;;22.83;;
51724;SDS011;37801;53.224;6.552;2023-01-29T08:58:22;32.90;;;23.20;;
51724;SDS011;37801;53.224;6.552;2023-01-29T09:00:48;30.30;;;22.38;;
51724;SDS011;37801;53.224;6.552;2023-01-29T09:03:14;32.75;;;22.25;;
51724;SDS011;37801;53.224;6.552;2023-01-29T09:05:41;34.13;;;23.15;;
51724;SDS011;37801;53.224;6.552;2023-01-29T09:08:07;32.85;;;23.73;;
51724;SDS011;37801;53.224;6.552;2023-01-29T09:10:34;33.78;;;23.30;;
51724;SDS011;37801;53.224;6.552;2023-01-29T09:13:00;34.17;;;23.85;;
51724;SDS011;37801;53.224;6.552;2023-01-29T09:15:27;34.45;;;22.88;;
51724;SDS011;37801;53.224;6.552;2023-01-29T09:17:53;33.65;;;22.95;;
51724;SDS011;37801;53.224;6.552;2023-01-29T09:20:19;36.00;;;24.02;;
51724;SDS011;37801;53.224;6.552;2023-01-29T09:22:45;34.83;;;23.35;;
51724;SDS011;37801;53.224;6.552;2023-01-29T09:25:12;34.20;;;23.58;;
51724;SDS011;37801;53.224;6.552;2023-01-29T09:27:38;33.35;;;22.90;;
51724;SDS011;37801;53.224;6.552;2023-01-29T09:30:04;33.60;;;23.05;;
51724;SDS011;37801;53.224;6.552;2023-01-29T09:32:32;33.33;;;22.98;;
51724;SDS011;37801;53.224;6.552;2023-01-29T09:34:58;31.65;;;21.33;;
51724;SDS011;37801;53.224;6.552;2023-01-29T09:37:24;33.47;;;23.50;;
51724;SDS011;37801;53.224;6.552;2023-01-29T09:39:51;35.60;;;23.00;;
51724;SDS011;37801;53.224;6.552;2023-01-29T09:42:39;33.85;;;23.02;;
51724;SDS011;37801;53.224;6.552;2023-01-29T09:45:15;33.90;;;22.08;;
51724;SDS011;37801;53.224;6.552;2023-01-29T09:47:45;33.45;;;21.33;;
51724;SDS011;37801;53.224;6.552;2023-01-29T09:52:40;34.70;;;22.73;;
51724;SDS011;37801;53.224;6.552;2023-01-29T09:57:38;34.20;;;22.65;;
51724;SDS011;37801;53.224;6.552;2023-01-29T10:00:12;32.80;;;22.17;;
51724;SDS011;37801;53.224;6.552;2023-01-29T10:10:31;32.72;;;22.52;;
51724;SDS011;37801;53.224;6.552;2023-01-29T10:15:47;35.03;;;23.25;;
51724;SDS011;37801;53.224;6.552;2023-01-29T10:25:49;35.53;;;23.48;;
51724;SDS011;37801;53.224;6.552;2023-01-29T10:30:49;35.75;;;24.85;;
51724;SDS011;37801;53.224;6.552;2023-01-29T10:33:24;35.78;;;23.98;;
51724;SDS011;37801;53.224;6.552;2023-01-29T10:35:56;38.90;;;24.45;;
51724;SDS011;37801;53.224;6.552;2023-01-29T10:38:30;41.15;;;25.27;;
51724;SDS011;37801;53.224;6.552;2023-01-29T10:51:40;39.75;;;24.95;;
51724;SDS011;37801;53.224;6.552;2023-01-29T10:54:34;38.65;;;23.83;;
51724;SDS011;37801;53.224;6.552;2023-01-29T10:57:03;36.55;;;24.10;;
51724;SDS011;37801;53.224;6.552;2023-01-29T11:02:17;39.15;;;25.60;;
51724;SDS011;37801;53.224;6.552;2023-01-29T11:04:45;37.08;;;23.90;;
51724;SDS011;37801;53.224;6.552;2023-01-29T11:07:11;39.33;;;25.88;;
51724;SDS011;37801;53.224;6.552;2023-01-29T11:09:41;40.20;;;25.35;;
51724;SDS011;37801;53.224;6.552;2023-01-29T11:12:10;36.88;;;24.73;;
51724;SDS011;37801;53.224;6.552;2023-01-29T11:14:41;42.50;;;25.27;;
51724;SDS011;37801;53.224;6.552;2023-01-29T11:17:16;42.47;;;26.52;;
51724;SDS011;37801;53.224;6.552;2023-01-29T11:22:16;36.42;;;23.52;;
51724;SDS011;37801;53.224;6.552;2023-01-29T11:24:43;38.75;;;25.52;;
51724;SDS011;37801;53.224;6.552;2023-01-29T11:27:14;41.75;;;26.67;;
51724;SDS011;37801;53.224;6.552;2023-01-29T11:29:42;43.67;;;26.02;;
51724;SDS011;37801;53.224;6.552;2023-01-29T11:32:13;37.95;;;25.77;;
51724;SDS011;37801;53.224;6.552;2023-01-29T11:37:32;37.88;;;23.73;;
51724;SDS011;37801;53.224;6.552;2023-01-29T11:39:58;37.05;;;24.75;;
51724;SDS011;37801;53.224;6.552;2023-01-29T11:42:25;36.83;;;23.30;;
51724;SDS011;37801;53.224;6.552;2023-01-29T11:44:55;38.58;;;24.83;;
51724;SDS011;37801;53.224;6.552;2023-01-29T11:47:22;38.50;;;25.02;;
51724;SDS011;37801;53.224;6.552;2023-01-29T11:49:57;36.15;;;24.02;;
51724;SDS011;37801;53.224;6.552;2023-01-29T11:52:34;38.33;;;24.83;;
51724;SDS011;37801;53.224;6.552;2023-01-29T11:55:21;36.92;;;24.08;;
51724;SDS011;37801;53.224;6.552;2023-01-29T11:58:02;34.35;;;23.65;;
51724;SDS011;37801;53.224;6.552;2023-01-29T12:00:30;37.63;;;24.15;;
51724;SDS011;37801;53.224;6.552;2023-01-29T12:05:26;35.47;;;23.38;;
51724;SDS011;37801;53.224;6.552;2023-01-29T12:07:55;34.97;;;21.92;;
51724;SDS011;37801;53.224;6.552;2023-01-29T12:13:03;32.85;;;22.05;;
51724;SDS011;37801;53.224;6.552;2023-01-29T12:15:29;34.53;;;21.52;;
51724;SDS011;37801;53.224;6.552;2023-01-29T12:20:45;31.52;;;21.05;;
51724;SDS011;37801;53.224;6.552;2023-01-29T12:25:41;35.53;;;22.35;;
51724;SDS011;37801;53.224;6.552;2023-01-29T12:28:22;33.50;;;20.85;;
51724;SDS011;37801;53.224;6.552;2023-01-29T12:33:47;35.88;;;21.35;;
51724;SDS011;37801;53.224;6.552;2023-01-29T12:38:48;29.25;;;18.98;;
51724;SDS011;37801;53.224;6.552;2023-01-29T12:43:55;29.05;;;18.85;;
51724;SDS011;37801;53.224;6.552;2023-01-29T12:46:24;24.67;;;16.37;;
51724;SDS011;37801;53.224;6.552;2023-01-29T12:48:51;26.73;;;18.02;;
51724;SDS011;37801;53.224;6.552;2023-01-29T12:51:19;27.25;;;17.83;;
51724;SDS011;37801;53.224;6.552;2023-01-29T12:53:48;26.77;;;17.15;;
51724;SDS011;37801;53.224;6.552;2023-01-29T12:56:18;27.67;;;17.58;;
51724;SDS011;37801;53.224;6.552;2023-01-29T12:58:47;25.65;;;17.50;;
51724;SDS011;37801;53.224;6.552;2023-01-29T13:03:51;25.73;;;17.23;;
51724;SDS011;37801;53.224;6.552;2023-01-29T13:06:24;24.02;;;16.60;;
51724;SDS011;37801;53.224;6.552;2023-01-29T13:08:53;24.65;;;16.98;;
51724;SDS011;37801;53.224;6.552;2023-01-29T13:11:23;23.50;;;15.27;;
51724;SDS011;37801;53.224;6.552;2023-01-29T13:13:52;23.73;;;15.80;;
51724;SDS011;37801;53.224;6.552;2023-01-29T13:16:20;24.63;;;16.48;;
51724;SDS011;37801;53.224;6.552;2023-01-29T13:18:49;24.80;;;15.60;;
51724;SDS011;37801;53.224;6.552;2023-01-29T13:21:24;24.67;;;15.40;;
51724;SDS011;37801;53.224;6.552;2023-01-29T13:26:17;23.08;;;14.65;;
51724;SDS011;37801;53.224;6.552;2023-01-29T13:28:44;21.23;;;14.55;;
51724;SDS011;37801;53.224;6.552;2023-01-29T13:31:27;24.63;;;16.15;;
51724;SDS011;37801;53.224;6.552;2023-01-29T13:34:01;22.73;;;15.35;;
51724;SDS011;37801;53.224;6.552;2023-01-29T13:39:02;20.75;;;14.02;;
51724;SDS011;37801;53.224;6.552;2023-01-29T13:41:36;22.58;;;14.70;;
51724;SDS011;37801;53.224;6.552;2023-01-29T13:44:04;24.58;;;14.65;;
51724;SDS011;37801;53.224;6.552;2023-01-29T13:46:31;23.70;;;14.68;;
51724;SDS011;37801;53.224;6.552;2023-01-29T13:48:57;19.65;;;13.75;;
51724;SDS011;37801;53.224;6.552;2023-01-29T13:51:31;20.08;;;13.32;;
51724;SDS011;37801;53.224;6.552;2023-01-29T13:54:03;18.40;;;12.90;;
51724;SDS011;37801;53.224;6.552;2023-01-29T13:58:59;19.58;;;13.50;;
51724;SDS011;37801;53.224;6.552;2023-01-29T14:06:50;20.73;;;13.45;;
51724;SDS011;37801;53.224;6.552;2023-01-29T14:12:02;20.23;;;13.73;;
51724;SDS011;37801;53.224;6.552;2023-01-29T14:17:13;20.98;;;14.07;;
51724;SDS011;37801;53.224;6.552;2023-01-29T14:19:49;21.52;;;14.43;;
51724;SDS011;37801;53.224;6.552;2023-01-29T14:22:20;19.35;;;13.57;;
51724;SDS011;37801;53.224;6.552;2023-01-29T14:24:47;20.27;;;13.75;;
51724;SDS011;37801;53.224;6.552;2023-01-29T14:27:20;18.90;;;13.10;;
51724;SDS011;37801;53.224;6.552;2023-01-29T14:29:49;19.02;;;12.57;;
51724;SDS011;37801;53.224;6.552;2023-01-29T14:32:19;21.83;;;13.63;;
51724;SDS011;37801;53.224;6.552;2023-01-29T14:35:04;18.33;;;13.00;;
51724;SDS011;37801;53.224;6.552;2023-01-29T14:37:35;20.17;;;13.70;;
51724;SDS011;37801;53.224;6.552;2023-01-29T14:40:12;20.73;;;13.50;;
51724;SDS011;37801;53.224;6.552;2023-01-29T14:45:26;20.88;;;14.73;;
51724;SDS011;37801;53.224;6.552;2023-01-29T14:53:10;26.27;;;16.45;;
51724;SDS011;37801;53.224;6.552;2023-01-29T14:55:38;24.85;;;15.95;;
51724;SDS011;37801;53.224;6.552;2023-01-29T14:58:05;24.80;;;15.98;;
51724;SDS011;37801;53.224;6.552;2023-01-29T15:00:33;26.80;;;17.50;;
51724;SDS011;37801;53.224;6.552;2023-01-29T15:02:59;26.35;;;17.77;;
51724;SDS011;37801;53.224;6.552;2023-01-29T15:05:27;23.67;;;16.70;;
51724;SDS011;37801;53.224;6.552;2023-01-29T15:07:55;25.13;;;16.92;;
51724;SDS011;37801;53.224;6.552;2023-01-29T15:10:27;24.65;;;16.60;;
51724;SDS011;37801;53.224;6.552;2023-01-29T15:13:03;24.10;;;16.70;;
51724;SDS011;37801;53.224;6.552;2023-01-29T15:20:30;24.80;;;16.60;;
51724;SDS011;37801;53.224;6.552;2023-01-29T15:22:57;24.73;;;16.38;;
51724;SDS011;37801;53.224;6.552;2023-01-29T15:25:23;24.27;;;17.17;;
51724;SDS011;37801;53.224;6.552;2023-01-29T15:27:49;24.48;;;15.80;;
51724;SDS011;37801;53.224;6.552;2023-01-29T15:30:21;25.23;;;17.13;;
51724;SDS011;37801;53.224;6.552;2023-01-29T15:32:48;27.77;;;18.55;;
51724;SDS011;37801;53.224;6.552;2023-01-29T15:37:56;32.50;;;20.05;;
51724;SDS011;37801;53.224;6.552;2023-01-29T15:40:23;29.50;;;18.92;;
51724;SDS011;37801;53.224;6.552;2023-01-29T15:42:49;32.45;;;20.73;;
51724;SDS011;37801;53.224;6.552;2023-01-29T15:45:28;33.30;;;21.02;;
51724;SDS011;37801;53.224;6.552;2023-01-29T15:48:12;34.03;;;20.70;;
51724;SDS011;37801;53.224;6.552;2023-01-29T15:53:05;32.17;;;20.73;;
51724;SDS011;37801;53.224;6.552;2023-01-29T15:55:32;33.22;;;21.60;;
51724;SDS011;37801;53.224;6.552;2023-01-29T15:58:00;37.22;;;21.80;;
51724;SDS011;37801;53.224;6.552;2023-01-29T16:00:26;36.42;;;23.25;;
51724;SDS011;37801;53.224;6.552;2023-01-29T16:02:54;38.47;;;23.30;;
51724;SDS011;37801;53.224;6.552;2023-01-29T16:05:24;37.50;;;23.10;;
51724;SDS011;37801;53.224;6.552;2023-01-29T16:07:52;40.58;;;22.80;;
51724;SDS011;37801;53.224;6.552;2023-01-29T16:10:19;39.33;;;23.83;;
51724;SDS011;37801;53.224;6.552;2023-01-29T16:12:47;38.33;;;22.98;;
51724;SDS011;37801;53.224;6.552;2023-01-29T16:15:53;39.78;;;22.95;;
51724;SDS011;37801;53.224;6.552;2023-01-29T16:18:18;34.92;;;22.83;;
51724;SDS011;37801;53.224;6.552;2023-01-29T16:20:46;37.75;;;23.17;;
51724;SDS011;37801;53.224;6.552;2023-01-29T16:23:20;39.40;;;23.98;;
51724;SDS011;37801;53.224;6.552;2023-01-29T16:25:47;39.17;;;23.40;;
51724;SDS011;37801;53.224;6.552;2023-01-29T16:28:14;38.30;;;22.58;;
51724;SDS011;37801;53.224;6.552;2023-01-29T16:30:40;39.20;;;23.00;;
51724;SDS011;37801;53.224;6.552;2023-01-29T16:33:07;35.42;;;21.70;;
51724;SDS011;37801;53.224;6.552;2023-01-29T16:35:37;38.50;;;23.10;;
51724;SDS011;37801;53.224;6.552;2023-01-29T16:38:05;40.83;;;23.77;;
51724;SDS011;37801;53.224;6.552;2023-01-29T16:40:33;33.38;;;22.45;;
51724;SDS011;37801;53.224;6.552;2023-01-29T16:43:28;41.33;;;23.88;;
51724;SDS011;37801;53.224;6.552;2023-01-29T16:46:03;44.78;;;25.88;;
51724;SDS011;37801;53.224;6.552;2023-01-29T16:48:31;40.25;;;24.27;;
51724;SDS011;37801;53.224;6.552;2023-01-29T16:51:04;46.05;;;25.85;;
51724;SDS011;37801;53.224;6.552;2023-01-29T16:53:30;41.65;;;25.30;;
51724;SDS011;37801;53.224;6.552;2023-01-29T16:56:04;44.53;;;26.77;;
51724;SDS011;37801;53.224;6.552;2023-01-29T17:01:00;45.45;;;26.42;;
51724;SDS011;37801;53.224;6.552;2023-01-29T17:03:27;52.33;;;28.88;;
51724;SDS011;37801;53.224;6.552;2023-01-29T17:05:55;52.22;;;29.00;;
51724;SDS011;37801;53.224;6.552;2023-01-29T17:10:47;47.03;;;29.90;;
51724;SDS011;37801;53.224;6.552;2023-01-29T17:13:27;52.50;;;29.80;;
51724;SDS011;37801;53.224;6.552;2023-01-29T17:15:53;48.88;;;28.98;;